createdAt,value
2023-02-17T00:00:32.191Z,70.97
2023-02-17T00:02:06.450Z,70.68
2023-02-17T00:03:38.107Z,71.25
2023-02-17T00:05:09.687Z,70.96
2023-02-17T00:06:42.624Z,70.32
2023-02-17T00:08:14.207Z,70.82
2023-02-17T00:09:45.799Z,70.61
2023-02-17T00:11:17.958Z,71.16
2023-02-17T00:12:49.571Z,70.77
2023-02-17T00:14:21.316Z,70.67
2023-02-17T00:15:53.038Z,70.89
2023-02-17T00:17:24.594Z,70.92
2023-02-17T00:18:56.955Z,70.94
2023-02-17T00:20:29.286Z,71.24
2023-02-17T00:22:02.457Z,70.68
2023-02-17T00:23:34.001Z,70.57
2023-02-17T00:25:06.004Z,71.06
2023-02-17T00:26:37.675Z,71.30
2023-02-17T00:28:09.621Z,70.81
2023-02-17T00:29:41.194Z,71.57
2023-02-17T00:31:14.432Z,71.60
2023-02-17T00:32:46.123Z,71.31
2023-02-17T00:34:17.730Z,71.21
2023-02-17T00:35:49.309Z,71.53
2023-02-17T00:37:22.431Z,71.14
2023-02-17T00:38:55.020Z,71.24
2023-02-17T00:40:26.550Z,72.01
2023-02-17T00:41:58.114Z,71.19
2023-02-17T00:43:29.714Z,71.52
2023-02-17T00:45:01.311Z,71.36
2023-02-17T00:46:32.878Z,72.01
2023-02-17T00:48:04.413Z,72.07
2023-02-17T00:49:36.070Z,72.19
2023-02-17T00:51:07.681Z,71.96
2023-02-17T00:52:41.078Z,72.45
2023-02-17T00:54:12.953Z,71.93
2023-02-17T00:55:44.494Z,71.98
2023-02-17T00:57:16.028Z,72.07
2023-02-17T00:58:47.673Z,72.47
2023-02-17T01:00:19.940Z,71.93
2023-02-17T01:01:51.589Z,72.68
2023-02-17T01:03:23.601Z,72.26
2023-02-17T01:04:56.282Z,72.19
2023-02-17T01:06:28.627Z,72.80
2023-02-17T01:08:01.559Z,73.11
2023-02-17T01:09:33.246Z,73.04
2023-02-17T01:11:04.914Z,72.91
2023-02-17T01:12:37.604Z,73.21
2023-02-17T01:14:12.551Z,73.52
2023-02-17T01:15:45.420Z,73.18
2023-02-17T01:17:18.003Z,73.64
2023-02-17T01:18:49.640Z,73.74
2023-02-17T01:20:23.127Z,73.46
2023-02-17T01:21:54.692Z,73.82
2023-02-17T01:23:27.613Z,73.99
2023-02-17T01:25:00.165Z,73.61
2023-02-17T01:26:33.782Z,74.01
2023-02-17T01:28:06.237Z,73.47
2023-02-17T01:29:37.787Z,74.13
2023-02-17T01:31:10.160Z,74.26
2023-02-17T01:32:42.628Z,73.59
2023-02-17T01:34:14.201Z,73.53
2023-02-17T01:35:45.739Z,73.95
2023-02-17T01:37:17.281Z,73.73
2023-02-17T01:38:50.202Z,73.25
2023-02-17T01:40:23.658Z,73.30
2023-02-17T01:41:55.224Z,73.37
2023-02-17T01:43:26.851Z,73.49
2023-02-17T01:45:16.893Z,73.33
2023-02-17T01:46:49.114Z,73.37
2023-02-17T01:48:22.473Z,73.70
2023-02-17T01:49:54.045Z,73.82
2023-02-17T01:51:28.611Z,73.94
2023-02-17T01:53:01.603Z,73.42
2023-02-17T01:54:36.563Z,73.58
2023-02-17T01:56:08.685Z,73.44
2023-02-17T01:57:44.322Z,73.42
2023-02-17T01:59:17.452Z,73.92
2023-02-17T02:00:49.673Z,74.33
2023-02-17T02:02:21.936Z,74.13
2023-02-17T02:03:53.801Z,73.83
2023-02-17T02:05:25.384Z,74.25
2023-02-17T02:06:57.159Z,73.82
2023-02-17T02:08:29.928Z,74.60
2023-02-17T02:10:02.883Z,74.03
2023-02-17T02:11:35.813Z,73.98
2023-02-17T02:13:07.874Z,73.92
2023-02-17T02:14:39.422Z,74.27
2023-02-17T02:16:14.412Z,73.77
2023-02-17T02:17:54.363Z,74.39
2023-02-17T02:19:46.413Z,73.98
2023-02-17T02:21:35.915Z,74.07
2023-02-17T02:23:16.577Z,73.71
2023-02-17T02:24:55.750Z,74.08
2023-02-17T02:26:55.494Z,73.58
2023-02-17T02:28:35.024Z,73.75
2023-02-17T02:30:15.633Z,74.13
2023-02-17T02:31:56.918Z,73.94
2023-02-17T02:33:33.207Z,74.09
2023-02-17T02:35:08.872Z,74.05
2023-02-17T02:36:43.641Z,74.38
2023-02-17T02:38:18.052Z,74.33
2023-02-17T02:39:52.322Z,74.38
2023-02-17T02:41:25.140Z,73.78
2023-02-17T02:42:57.059Z,73.82
2023-02-17T02:44:28.668Z,74.26
2023-02-17T02:46:00.333Z,73.64
2023-02-17T02:47:42.728Z,73.85
2023-02-17T02:49:15.948Z,73.26
2023-02-17T02:50:53.934Z,73.80
2023-02-17T02:52:31.638Z,73.24
2023-02-17T02:54:13.697Z,73.89
2023-02-17T02:55:52.659Z,73.46
2023-02-17T02:57:32.633Z,73.93
2023-02-17T02:59:10.938Z,73.40
2023-02-17T03:00:48.895Z,73.17
2023-02-17T03:02:28.168Z,72.82
2023-02-17T03:04:02.978Z,72.98
2023-02-17T03:05:39.551Z,72.85
2023-02-17T03:07:12.692Z,72.80
2023-02-17T03:08:48.695Z,72.89
2023-02-17T03:10:20.612Z,72.94
2023-02-17T03:11:52.460Z,72.57
2023-02-17T03:13:24.182Z,73.22
2023-02-17T03:15:00.062Z,72.77
2023-02-17T03:16:32.937Z,72.67
2023-02-17T03:18:04.976Z,72.64
2023-02-17T03:19:36.808Z,73.16
2023-02-17T03:21:14.295Z,73.10
2023-02-17T03:22:47.772Z,73.08
2023-02-17T03:24:19.996Z,72.82
2023-02-17T03:25:51.598Z,72.80
2023-02-17T03:27:23.209Z,72.90
2023-02-17T03:28:54.765Z,73.23
2023-02-17T03:30:26.540Z,72.97
2023-02-17T03:31:58.307Z,73.13
2023-02-17T03:33:29.920Z,73.24
2023-02-17T03:35:01.568Z,72.99
2023-02-17T03:36:34.495Z,72.95
2023-02-17T03:38:06.052Z,73.24
2023-02-17T03:39:37.580Z,72.86
2023-02-17T03:41:09.204Z,73.09
2023-02-17T03:42:40.760Z,72.62
2023-02-17T03:44:12.298Z,73.02
2023-02-17T03:45:43.930Z,73.33
2023-02-17T03:47:15.519Z,72.75
2023-02-17T03:48:47.341Z,72.87
2023-02-17T03:50:18.907Z,73.34
2023-02-17T03:51:51.840Z,73.82
2023-02-17T03:53:23.395Z,73.73
2023-02-17T03:54:54.959Z,73.33
2023-02-17T03:56:26.775Z,73.00
2023-02-17T03:57:58.288Z,73.12
2023-02-17T03:59:30.283Z,72.76
2023-02-17T04:01:02.043Z,73.26
2023-02-17T04:02:33.617Z,73.02
2023-02-17T04:04:05.223Z,72.61
2023-02-17T04:05:36.831Z,72.93
2023-02-17T04:07:09.755Z,72.93
2023-02-17T04:08:41.710Z,73.37
2023-02-17T04:10:13.282Z,73.08
2023-02-17T04:11:44.852Z,72.98
2023-02-17T04:13:16.391Z,73.00
2023-02-17T04:14:47.947Z,72.33
2023-02-17T04:16:19.540Z,73.00
2023-02-17T04:17:51.139Z,72.88
2023-02-17T04:19:22.770Z,72.79
2023-02-17T04:20:54.400Z,72.95
2023-02-17T04:22:27.285Z,72.75
2023-02-17T04:24:00.164Z,72.81
2023-02-17T04:25:33.655Z,72.63
2023-02-17T04:27:05.419Z,72.52
2023-02-17T04:28:40.487Z,72.25
2023-02-17T04:30:12.694Z,72.07
2023-02-17T04:31:44.487Z,71.79
2023-02-17T04:33:16.794Z,72.09
2023-02-17T04:34:48.359Z,72.42
2023-02-17T04:36:20.005Z,71.94
2023-02-17T04:37:52.953Z,71.56
2023-02-17T04:39:24.485Z,71.73
2023-02-17T04:40:56.785Z,71.97
2023-02-17T04:42:28.411Z,72.30
2023-02-17T04:43:59.936Z,71.75
2023-02-17T04:45:31.668Z,72.33
2023-02-17T04:47:03.217Z,72.40
2023-02-17T04:48:34.841Z,72.12
2023-02-17T04:50:08.825Z,72.36
2023-02-17T04:51:40.377Z,72.36
2023-02-17T04:53:14.057Z,72.59
2023-02-17T04:54:45.647Z,72.56
2023-02-17T04:56:17.218Z,72.14
2023-02-17T04:57:48.760Z,72.66
2023-02-17T04:59:20.342Z,72.41
2023-02-17T05:00:51.962Z,72.40
2023-02-17T05:02:23.652Z,72.06
2023-02-17T05:03:55.232Z,72.06
2023-02-17T05:05:27.267Z,72.21
2023-02-17T05:06:58.804Z,72.82
2023-02-17T05:08:31.683Z,72.96
2023-02-17T05:10:03.355Z,72.73
2023-02-17T05:11:35.088Z,72.29
2023-02-17T05:13:06.670Z,72.23
2023-02-17T05:14:38.508Z,72.18
2023-02-17T05:16:10.074Z,72.28
2023-02-17T05:17:41.705Z,72.09
2023-02-17T05:19:13.769Z,71.73
2023-02-17T05:20:45.341Z,71.53
2023-02-17T05:22:16.934Z,71.74
2023-02-17T05:23:49.838Z,71.39
2023-02-17T05:25:21.461Z,72.26
2023-02-17T05:26:53.074Z,71.69
2023-02-17T05:28:24.611Z,71.68
2023-02-17T05:29:56.245Z,71.72
2023-02-17T05:31:28.033Z,71.95
2023-02-17T05:33:02.175Z,71.52
2023-02-17T05:34:35.458Z,71.63
2023-02-17T05:36:08.642Z,71.71
2023-02-17T05:37:40.262Z,71.96
2023-02-17T05:39:13.213Z,72.06
2023-02-17T05:40:44.739Z,72.06
2023-02-17T05:42:16.310Z,72.56
2023-02-17T05:43:47.932Z,72.50
2023-02-17T05:45:19.495Z,72.71
2023-02-17T05:46:51.021Z,72.73
2023-02-17T05:48:22.626Z,72.50
2023-02-17T05:49:54.207Z,72.61
2023-02-17T05:51:25.783Z,72.25
2023-02-17T05:52:57.332Z,72.32
2023-02-17T05:54:30.277Z,72.16
2023-02-17T05:56:01.889Z,72.32
2023-02-17T05:57:33.482Z,72.00
2023-02-17T05:59:05.186Z,72.40
2023-02-17T06:00:36.876Z,72.07
2023-02-17T06:02:08.453Z,72.09
2023-02-17T06:03:40.052Z,72.03
2023-02-17T06:05:11.833Z,71.97
2023-02-17T06:06:43.458Z,71.98
2023-02-17T06:08:15.080Z,72.74
2023-02-17T06:09:47.982Z,72.41
2023-02-17T06:11:19.594Z,71.96
2023-02-17T06:12:51.292Z,71.93
2023-02-17T06:14:22.937Z,71.87
2023-02-17T06:15:54.556Z,71.79
2023-02-17T06:17:26.137Z,71.72
2023-02-17T06:19:00.146Z,72.36
2023-02-17T06:20:31.711Z,72.16
2023-02-17T06:22:03.291Z,72.25
2023-02-17T06:23:34.965Z,72.27
2023-02-17T06:25:08.434Z,72.17
2023-02-17T06:26:40.124Z,72.28
2023-02-17T06:28:11.697Z,72.23
2023-02-17T06:29:43.653Z,71.91
2023-02-17T06:31:15.359Z,72.37
2023-02-17T06:32:47.026Z,72.30
2023-02-17T06:34:18.688Z,72.01
2023-02-17T06:35:50.544Z,71.82
2023-02-17T06:37:22.203Z,72.08
2023-02-17T06:38:53.890Z,71.94
2023-02-17T06:40:28.762Z,72.04
2023-02-17T06:42:00.535Z,72.08
2023-02-17T06:43:32.183Z,71.99
2023-02-17T06:45:06.059Z,71.82
2023-02-17T06:46:37.655Z,71.98
2023-02-17T06:48:09.510Z,72.17
2023-02-17T06:49:41.181Z,72.13
2023-02-17T06:51:12.811Z,72.63
2023-02-17T06:52:44.319Z,72.33
2023-02-17T06:54:15.969Z,72.24
2023-02-17T06:55:48.884Z,72.65
2023-02-17T06:57:20.582Z,72.81
2023-02-17T06:58:52.182Z,73.06
2023-02-17T07:00:23.803Z,73.08
2023-02-17T07:01:55.493Z,73.24
2023-02-17T07:03:27.146Z,73.11
2023-02-17T07:04:58.681Z,73.59
2023-02-17T07:06:30.224Z,73.60
2023-02-17T07:08:01.826Z,73.36
2023-02-17T07:09:33.424Z,73.55
2023-02-17T07:11:07.071Z,73.81
2023-02-17T07:12:38.741Z,74.12
2023-02-17T07:14:10.449Z,73.52
2023-02-17T07:15:42.052Z,73.91
2023-02-17T07:17:13.800Z,73.84
2023-02-17T07:18:45.313Z,73.57
2023-02-17T07:20:16.952Z,73.90
2023-02-17T07:21:48.847Z,73.31
2023-02-17T07:23:20.367Z,73.17
2023-02-17T07:24:52.112Z,73.72
2023-02-17T07:26:25.052Z,73.48
2023-02-17T07:27:56.673Z,73.26
2023-02-17T07:29:28.336Z,73.29
2023-02-17T07:31:04.927Z,72.98
2023-02-17T07:32:36.685Z,73.34
2023-02-17T07:34:08.302Z,73.37
2023-02-17T07:35:40.621Z,72.84
2023-02-17T07:37:12.219Z,72.89
2023-02-17T07:38:43.890Z,73.06
2023-02-17T07:40:17.770Z,72.84
2023-02-17T07:41:50.787Z,73.03
2023-02-17T07:43:23.264Z,72.54
2023-02-17T07:44:55.513Z,73.11
2023-02-17T07:46:28.101Z,73.35
2023-02-17T07:47:59.618Z,73.22
2023-02-17T07:49:31.491Z,72.80
2023-02-17T07:51:06.739Z,72.94
2023-02-17T07:52:38.517Z,72.88
2023-02-17T07:54:10.153Z,73.13
2023-02-17T07:55:41.895Z,73.12
2023-02-17T07:57:14.858Z,73.21
2023-02-17T07:58:46.429Z,73.02
2023-02-17T08:00:18.241Z,73.03
2023-02-17T08:01:49.954Z,73.38
2023-02-17T08:03:21.574Z,73.06
2023-02-17T08:04:53.276Z,73.18
2023-02-17T08:06:25.466Z,72.87
2023-02-17T08:08:15.496Z,73.12
2023-02-17T08:10:05.585Z,73.39
2023-02-17T08:11:55.818Z,73.26
2023-02-17T08:13:28.718Z,73.14
2023-02-17T08:15:00.376Z,72.77
2023-02-17T08:16:32.013Z,72.72
2023-02-17T08:18:05.045Z,72.84
2023-02-17T08:19:47.626Z,72.46
2023-02-17T08:21:19.896Z,72.75
2023-02-17T08:22:51.484Z,72.86
2023-02-17T08:24:23.129Z,72.88
2023-02-17T08:25:57.538Z,72.70
2023-02-17T08:27:29.089Z,72.68
2023-02-17T08:29:02.486Z,72.74
2023-02-17T08:30:35.549Z,72.75
2023-02-17T08:32:07.504Z,72.54
2023-02-17T08:33:39.120Z,72.96
2023-02-17T08:35:10.691Z,72.84
2023-02-17T08:36:42.426Z,72.90
2023-02-17T08:38:14.029Z,72.67
2023-02-17T08:39:45.559Z,72.47
2023-02-17T08:41:18.732Z,72.72
2023-02-17T08:42:50.364Z,72.59
2023-02-17T08:44:23.766Z,72.24
2023-02-17T08:45:56.315Z,72.38
2023-02-17T08:47:28.091Z,72.24
2023-02-17T08:48:59.778Z,72.25
2023-02-17T08:50:31.542Z,71.90
2023-02-17T08:52:03.626Z,71.82
2023-02-17T08:53:35.204Z,71.79
2023-02-17T08:55:06.886Z,71.76
2023-02-17T08:56:39.271Z,71.89
2023-02-17T08:58:10.936Z,71.62
2023-02-17T08:59:45.158Z,71.92
2023-02-17T09:01:18.968Z,71.56
2023-02-17T09:02:50.714Z,71.52
2023-02-17T09:04:22.516Z,71.45
2023-02-17T09:05:54.559Z,71.34
2023-02-17T09:07:26.545Z,71.15
2023-02-17T09:08:58.191Z,71.15
2023-02-17T09:10:30.777Z,71.34
2023-02-17T09:12:02.396Z,70.79
2023-02-17T09:13:34.289Z,71.01
2023-02-17T09:15:07.741Z,70.84
2023-02-17T09:16:41.354Z,70.85
2023-02-17T09:18:13.380Z,70.96
2023-02-17T09:19:44.928Z,70.82
2023-02-17T09:21:17.908Z,70.16
2023-02-17T09:22:51.487Z,70.44
2023-02-17T09:24:23.668Z,70.44
2023-02-17T09:26:01.270Z,70.17
2023-02-17T09:27:32.823Z,70.55
2023-02-17T09:29:05.018Z,70.64
2023-02-17T09:30:38.053Z,70.66
2023-02-17T09:32:09.892Z,70.14
2023-02-17T09:33:41.885Z,70.01
2023-02-17T09:35:14.134Z,69.58
2023-02-17T09:36:45.834Z,69.46
2023-02-17T09:38:17.429Z,69.96
2023-02-17T09:39:49.126Z,69.87
2023-02-17T09:41:22.697Z,69.76
2023-02-17T09:42:54.470Z,69.51
2023-02-17T09:44:38.803Z,69.22
2023-02-17T09:46:15.942Z,69.05
2023-02-17T09:47:49.807Z,69.14
2023-02-17T09:49:23.850Z,68.56
2023-02-17T09:50:56.456Z,68.90
2023-02-17T09:52:33.809Z,68.97
2023-02-17T09:54:08.410Z,68.76
2023-02-17T09:55:42.412Z,69.00
2023-02-17T09:57:19.725Z,69.40
2023-02-17T09:58:53.249Z,69.31
2023-02-17T10:00:26.711Z,68.87
2023-02-17T10:02:00.212Z,69.03
2023-02-17T10:03:35.812Z,69.00
2023-02-17T10:05:10.725Z,69.05
2023-02-17T10:06:44.910Z,69.26
2023-02-17T10:08:18.039Z,68.76
2023-02-17T10:09:51.762Z,68.41
2023-02-17T10:11:26.914Z,68.29
2023-02-17T10:13:00.556Z,68.72
2023-02-17T10:14:34.994Z,67.80
2023-02-17T10:16:09.567Z,68.43
2023-02-17T10:17:46.026Z,67.72
2023-02-17T10:19:21.130Z,68.46
2023-02-17T10:20:57.468Z,67.44
2023-02-17T10:22:30.631Z,67.22
2023-02-17T10:24:02.217Z,67.23
2023-02-17T10:25:54.850Z,66.96
2023-02-17T10:27:37.487Z,66.27
2023-02-17T10:29:14.587Z,66.46
2023-02-17T10:30:49.701Z,65.91
2023-02-17T10:32:25.443Z,65.82
2023-02-17T10:34:01.683Z,66.00
2023-02-17T10:35:40.065Z,65.97
2023-02-17T10:37:14.089Z,65.73
2023-02-17T10:38:49.314Z,65.95
2023-02-17T10:40:22.536Z,66.22
2023-02-17T10:41:54.962Z,66.45
2023-02-17T10:43:30.057Z,66.14
2023-02-17T10:45:03.513Z,65.90
2023-02-17T10:46:35.201Z,65.75
2023-02-17T10:48:08.988Z,65.60
2023-02-17T10:49:45.660Z,65.52
2023-02-17T10:51:18.894Z,65.53
2023-02-17T10:52:51.219Z,65.73
2023-02-17T10:54:29.077Z,65.67
2023-02-17T10:56:04.159Z,65.50
2023-02-17T10:57:37.516Z,65.66
2023-02-17T10:59:14.476Z,65.53
2023-02-17T11:00:47.862Z,65.76
2023-02-17T11:02:20.569Z,65.96
2023-02-17T11:04:02.166Z,65.82
2023-02-17T11:05:35.199Z,65.97
2023-02-17T11:07:11.505Z,65.82
2023-02-17T11:08:46.317Z,66.17
2023-02-17T11:10:22.071Z,65.69
2023-02-17T11:11:57.964Z,65.54
2023-02-17T11:13:34.348Z,65.71
2023-02-17T11:15:14.523Z,65.22
2023-02-17T11:16:47.600Z,65.23
2023-02-17T11:18:21.571Z,65.24
2023-02-17T11:19:58.120Z,64.46
2023-02-17T11:21:35.365Z,64.75
2023-02-17T11:23:20.867Z,64.10
2023-02-17T11:24:57.945Z,64.00
2023-02-17T11:26:31.412Z,64.20
2023-02-17T11:28:04.864Z,63.84
2023-02-17T11:29:36.396Z,63.73
2023-02-17T11:31:22.150Z,63.48
2023-02-17T11:32:55.666Z,63.12
2023-02-17T11:34:28.791Z,62.86
2023-02-17T11:36:00.746Z,63.44
2023-02-17T11:37:37.863Z,63.10
2023-02-17T11:39:17.102Z,63.14
2023-02-17T11:40:53.097Z,62.88
2023-02-17T11:42:25.326Z,62.89
2023-02-17T11:44:00.622Z,62.59
2023-02-17T11:45:36.418Z,62.61
2023-02-17T11:47:12.443Z,62.47
2023-02-17T11:49:00.622Z,62.63
2023-02-17T11:50:41.574Z,62.27
2023-02-17T11:52:24.104Z,62.30
2023-02-17T11:54:03.550Z,62.19
2023-02-17T11:55:39.398Z,62.23
2023-02-17T11:57:17.437Z,62.10
2023-02-17T11:58:58.186Z,61.76
2023-02-17T12:00:33.262Z,61.88
2023-02-17T12:02:22.360Z,62.12
2023-02-17T12:04:08.932Z,62.16
2023-02-17T12:05:49.398Z,62.72
2023-02-17T12:07:41.805Z,62.96
2023-02-17T12:09:19.039Z,62.84
2023-02-17T12:10:59.309Z,62.95
2023-02-17T12:12:35.477Z,62.56
2023-02-17T12:14:18.835Z,62.47
2023-02-17T12:15:56.851Z,62.49
2023-02-17T12:17:35.615Z,62.46
2023-02-17T12:19:15.867Z,62.24
2023-02-17T12:20:51.314Z,62.27
2023-02-17T12:22:30.602Z,62.01
2023-02-17T12:24:10.304Z,62.44
2023-02-17T12:25:45.203Z,62.16
2023-02-17T12:27:24.242Z,61.79
2023-02-17T12:29:02.279Z,62.12
2023-02-17T12:30:42.510Z,62.12
2023-02-17T12:32:19.001Z,62.15
2023-02-17T12:33:56.616Z,61.14
2023-02-17T12:35:31.521Z,60.64
2023-02-17T12:37:05.388Z,60.37
2023-02-17T12:38:39.380Z,60.11
2023-02-17T12:40:15.867Z,60.09
2023-02-17T12:41:50.937Z,59.91
2023-02-17T12:43:25.697Z,58.95
2023-02-17T12:44:59.862Z,59.29
2023-02-17T12:46:35.099Z,58.96
2023-02-17T12:48:12.864Z,58.95
2023-02-17T12:49:48.630Z,58.49
2023-02-17T12:51:22.478Z,58.66
2023-02-17T12:52:55.469Z,59.00
2023-02-17T12:54:31.582Z,58.52
2023-02-17T12:56:05.206Z,58.69
2023-02-17T12:57:41.829Z,59.00
2023-02-17T12:59:15.509Z,59.07
2023-02-17T13:00:49.689Z,59.11
2023-02-17T13:02:22.440Z,59.33
2023-02-17T13:03:54.178Z,59.18
2023-02-17T13:05:28.531Z,59.53
2023-02-17T13:07:04.192Z,59.96
2023-02-17T13:08:38.724Z,59.97
2023-02-17T13:10:21.353Z,60.61
2023-02-17T13:11:52.990Z,60.73
2023-02-17T13:13:28.010Z,60.84
2023-02-17T13:15:00.809Z,60.87
2023-02-17T13:16:41.973Z,60.25
2023-02-17T13:18:14.535Z,60.14
2023-02-17T13:19:46.151Z,59.77
2023-02-17T13:21:27.604Z,59.48
2023-02-17T13:23:06.510Z,59.28
2023-02-17T13:24:39.019Z,59.01
2023-02-17T13:26:34.656Z,59.83
2023-02-17T13:28:21.135Z,59.96
2023-02-17T13:30:00.529Z,59.93
2023-02-17T13:31:32.348Z,60.45
2023-02-17T13:33:04.723Z,60.95
2023-02-17T13:34:38.298Z,61.23
2023-02-17T13:36:16.783Z,61.02
2023-02-17T13:37:48.386Z,60.60
2023-02-17T13:39:31.123Z,60.52
2023-02-17T13:41:07.273Z,60.27
2023-02-17T13:42:40.062Z,60.34
2023-02-17T13:44:26.694Z,59.63
2023-02-17T13:46:00.627Z,59.92
2023-02-17T13:47:37.535Z,60.23
2023-02-17T13:49:20.999Z,59.85
2023-02-17T13:50:53.768Z,59.79
2023-02-17T13:52:27.390Z,59.49
2023-02-17T13:54:05.716Z,59.42
2023-02-17T13:55:41.636Z,59.37
2023-02-17T13:57:22.264Z,59.47
2023-02-17T13:58:54.325Z,59.67
2023-02-17T14:00:27.657Z,59.56
2023-02-17T14:02:03.987Z,59.48
2023-02-17T14:03:41.411Z,59.52
2023-02-17T14:05:17.895Z,59.09
2023-02-17T14:06:50.046Z,59.50
2023-02-17T14:08:27.038Z,59.72
2023-02-17T14:09:59.725Z,59.63
2023-02-17T14:11:33.086Z,59.67
2023-02-17T14:13:05.107Z,59.58
2023-02-17T14:14:38.201Z,59.52
2023-02-17T14:16:26.180Z,59.65
2023-02-17T14:17:59.254Z,59.55
2023-02-17T14:19:42.214Z,59.99
2023-02-17T14:21:24.160Z,60.40
2023-02-17T14:23:04.810Z,60.53
2023-02-17T14:24:37.877Z,60.70
2023-02-17T14:26:12.754Z,60.54
2023-02-17T14:27:45.591Z,60.56
2023-02-17T14:29:17.189Z,60.31
2023-02-17T14:30:49.931Z,59.90
2023-02-17T14:32:30.651Z,60.41
2023-02-17T14:34:04.122Z,60.95
2023-02-17T14:35:41.404Z,60.52
2023-02-17T14:37:18.666Z,61.06
2023-02-17T14:38:55.087Z,61.16
2023-02-17T14:40:27.796Z,60.75
2023-02-17T14:41:59.398Z,61.34
2023-02-17T14:43:33.241Z,61.28
2023-02-17T14:45:05.124Z,61.76
2023-02-17T14:46:44.695Z,61.76
2023-02-17T14:48:16.537Z,61.69
2023-02-17T14:49:49.534Z,61.91
2023-02-17T14:51:21.977Z,62.46
2023-02-17T14:52:53.871Z,62.27
2023-02-17T14:54:27.125Z,62.30
2023-02-17T14:56:01.009Z,62.51
2023-02-17T14:57:32.615Z,62.51
2023-02-17T14:59:04.499Z,62.44
2023-02-17T15:00:36.117Z,62.84
2023-02-17T15:02:12.639Z,62.49
2023-02-17T15:03:44.400Z,61.89
2023-02-17T15:05:17.553Z,62.00
2023-02-17T15:06:50.840Z,61.73
2023-02-17T15:08:27.826Z,62.07
2023-02-17T15:09:59.465Z,62.02
2023-02-17T15:11:34.398Z,61.99
2023-02-17T15:13:06.560Z,62.16
2023-02-17T15:14:38.114Z,62.08
2023-02-17T15:16:10.101Z,62.36
2023-02-17T15:17:41.862Z,62.25
2023-02-17T15:19:14.070Z,62.24
2023-02-17T15:20:48.037Z,62.39
2023-02-17T15:22:19.645Z,62.88
2023-02-17T15:23:51.696Z,63.53
2023-02-17T15:25:24.036Z,63.89
2023-02-17T15:26:55.657Z,65.09
2023-02-17T15:28:27.223Z,65.15
2023-02-17T15:29:58.949Z,65.52
2023-02-17T15:31:32.531Z,65.81
2023-02-17T15:33:04.529Z,65.72
2023-02-17T15:34:36.489Z,65.87
2023-02-17T15:36:13.679Z,66.20
2023-02-17T15:37:45.400Z,66.46
2023-02-17T15:39:18.254Z,66.27
2023-02-17T15:40:50.097Z,66.00
2023-02-17T15:42:21.776Z,65.52
2023-02-17T15:43:54.548Z,65.40
2023-02-17T15:45:26.291Z,65.60
2023-02-17T15:46:58.002Z,65.91
2023-02-17T15:48:34.045Z,66.33
2023-02-17T15:50:06.985Z,66.41
2023-02-17T15:51:40.482Z,66.70
2023-02-17T15:53:12.196Z,66.98
2023-02-17T15:54:43.959Z,67.28
2023-02-17T15:56:19.113Z,67.91
2023-02-17T15:57:56.799Z,67.74
2023-02-17T15:59:28.414Z,68.36
2023-02-17T16:01:01.522Z,68.74
2023-02-17T16:02:33.286Z,68.74
2023-02-17T16:04:06.196Z,69.31
2023-02-17T16:05:37.943Z,69.05
2023-02-17T16:07:11.228Z,69.02
2023-02-17T16:08:43.006Z,68.47
2023-02-17T16:10:16.224Z,67.94
2023-02-17T16:11:49.163Z,67.74
2023-02-17T16:13:21.023Z,67.63
2023-02-17T16:14:52.716Z,67.59
2023-02-17T16:16:25.430Z,67.73
2023-02-17T16:17:58.705Z,67.82
2023-02-17T16:19:31.528Z,67.91
2023-02-17T16:21:03.096Z,67.88
2023-02-17T16:22:36.101Z,67.61
2023-02-17T16:24:07.719Z,67.25
2023-02-17T16:25:41.904Z,67.29
2023-02-17T16:27:14.455Z,66.84
2023-02-17T16:28:46.404Z,66.81
2023-02-17T16:30:19.377Z,67.17
2023-02-17T16:31:51.919Z,66.98
2023-02-17T16:33:24.663Z,66.55
2023-02-17T16:34:56.382Z,66.28
2023-02-17T16:36:30.225Z,66.91
2023-02-17T16:38:05.429Z,66.82
2023-02-17T16:39:38.292Z,66.57
2023-02-17T16:41:12.412Z,66.83
2023-02-17T16:42:44.105Z,66.37
2023-02-17T16:44:16.210Z,66.66
2023-02-17T16:45:50.028Z,66.92
2023-02-17T16:47:22.701Z,66.80
2023-02-17T16:48:54.680Z,66.64
2023-02-17T16:50:27.682Z,67.04
2023-02-17T16:51:59.900Z,67.02
2023-02-17T16:53:32.838Z,67.05
2023-02-17T16:55:05.284Z,67.03
2023-02-17T16:56:37.628Z,67.09
2023-02-17T16:58:15.009Z,66.95
2023-02-17T16:59:47.328Z,67.19
2023-02-17T17:01:19.075Z,67.49
2023-02-17T17:02:51.028Z,67.13
2023-02-17T17:04:22.680Z,67.45
2023-02-17T17:05:54.233Z,67.55
2023-02-17T17:07:25.912Z,68.08
2023-02-17T17:08:58.918Z,68.16
2023-02-17T17:10:31.533Z,68.24
2023-02-17T17:12:03.194Z,68.75
2023-02-17T17:13:34.731Z,68.66
2023-02-17T17:15:07.051Z,69.09
2023-02-17T17:16:40.210Z,68.93
2023-02-17T17:18:17.879Z,69.12
2023-02-17T17:19:49.526Z,69.82
2023-02-17T17:21:21.214Z,70.13
2023-02-17T17:22:52.881Z,70.22
2023-02-17T17:24:25.895Z,70.00
2023-02-17T17:25:57.541Z,70.07
2023-02-17T17:27:29.116Z,69.57
2023-02-17T17:29:00.834Z,69.58
2023-02-17T17:30:35.630Z,69.83
2023-02-17T17:32:07.566Z,69.93
2023-02-17T17:33:41.282Z,70.16
2023-02-17T17:35:13.117Z,70.26
2023-02-17T17:36:45.661Z,70.29
2023-02-17T17:38:17.358Z,70.08
2023-02-17T17:39:57.503Z,70.09
2023-02-17T17:41:29.868Z,69.96
2023-02-17T17:43:01.507Z,69.92
2023-02-17T17:44:33.331Z,69.89
2023-02-17T17:46:06.206Z,69.44
2023-02-17T17:47:38.283Z,69.38
2023-02-17T17:49:12.213Z,69.36
2023-02-17T17:50:44.364Z,68.98
2023-02-17T17:52:16.054Z,68.98
2023-02-17T17:53:47.834Z,69.13
2023-02-17T17:55:21.468Z,68.86
2023-02-17T17:56:53.392Z,68.80
2023-02-17T17:58:25.068Z,68.99
2023-02-17T17:59:57.011Z,69.14
2023-02-17T18:01:28.896Z,68.92
2023-02-17T18:03:00.608Z,68.50
2023-02-17T18:04:34.937Z,68.57
2023-02-17T18:06:07.961Z,68.39
2023-02-17T18:07:40.640Z,68.39
2023-02-17T18:09:25.762Z,68.53
2023-02-17T18:11:03.758Z,68.45
2023-02-17T18:12:36.578Z,68.96
2023-02-17T18:14:11.482Z,69.20
2023-02-17T18:15:44.309Z,69.17
2023-02-17T18:17:18.046Z,69.33
2023-02-17T18:18:49.853Z,69.35
2023-02-17T18:20:21.700Z,69.13
2023-02-17T18:21:53.348Z,69.23
2023-02-17T18:23:24.945Z,69.33
2023-02-17T18:24:56.558Z,69.19
2023-02-17T18:26:29.501Z,69.14
2023-02-17T18:28:01.131Z,68.92
2023-02-17T18:29:32.812Z,68.51
2023-02-17T18:31:06.236Z,68.87
2023-02-17T18:32:37.952Z,68.65
2023-02-17T18:34:09.592Z,68.85
2023-02-17T18:35:43.367Z,68.65
2023-02-17T18:37:15.980Z,68.73
2023-02-17T18:38:47.844Z,68.48
2023-02-17T18:40:20.405Z,68.48
2023-02-17T18:41:53.627Z,68.36
2023-02-17T18:43:25.196Z,68.72
2023-02-17T18:44:56.816Z,68.71
2023-02-17T18:46:28.486Z,68.76
2023-02-17T18:48:00.166Z,68.72
2023-02-17T18:49:31.773Z,68.70
2023-02-17T18:51:05.357Z,68.72
2023-02-17T18:52:37.344Z,68.65
2023-02-17T18:54:10.916Z,68.80
2023-02-17T18:55:43.117Z,68.51
2023-02-17T18:57:16.754Z,68.45
2023-02-17T18:58:49.608Z,68.30
2023-02-17T19:00:21.367Z,68.51
2023-02-17T19:01:53.122Z,68.90
2023-02-17T19:03:24.700Z,69.17
2023-02-17T19:04:56.357Z,68.99
2023-02-17T19:06:34.541Z,69.21
2023-02-17T19:08:07.943Z,69.49
2023-02-17T19:09:42.264Z,69.31
2023-02-17T19:11:14.701Z,69.34
2023-02-17T19:12:47.953Z,69.40
2023-02-17T19:14:19.495Z,69.29
2023-02-17T19:15:51.467Z,69.52
2023-02-17T19:17:23.689Z,69.57
2023-02-17T19:18:55.575Z,69.37
2023-02-17T19:20:27.454Z,69.27
2023-02-17T19:21:59.080Z,69.58
2023-02-17T19:23:30.688Z,69.38
2023-02-17T19:25:02.935Z,69.25
2023-02-17T19:26:36.171Z,69.29
2023-02-17T19:28:09.167Z,69.22
2023-02-17T19:29:40.995Z,69.72
2023-02-17T19:31:13.771Z,69.77
2023-02-17T19:32:45.590Z,70.06
2023-02-17T19:34:20.309Z,70.10
2023-02-17T19:35:52.603Z,70.34
2023-02-17T19:37:24.178Z,70.22
2023-02-17T19:38:56.767Z,70.44
2023-02-17T19:40:28.350Z,70.35
2023-02-17T19:41:59.926Z,70.39
2023-02-17T19:43:32.897Z,70.33
2023-02-17T19:45:04.997Z,70.21
2023-02-17T19:46:39.228Z,70.15
2023-02-17T19:48:10.923Z,70.34
2023-02-17T19:49:42.497Z,70.17
2023-02-17T19:51:14.208Z,70.40
2023-02-17T19:52:46.293Z,70.71
2023-02-17T19:54:17.876Z,70.54
2023-02-17T19:55:49.538Z,70.61
2023-02-17T19:57:21.108Z,70.37
2023-02-17T19:58:54.350Z,70.35
2023-02-17T20:00:25.917Z,70.68
2023-02-17T20:01:58.090Z,70.74
2023-02-17T20:03:29.708Z,70.90
2023-02-17T20:05:01.289Z,70.59
2023-02-17T20:06:34.745Z,70.37